sensor_id;sensor_type;location;lat;lon;timestamp;P1;durP1;ratioP1;P2;durP2;ratioP2
31347;SDS011;21711;49.708;18.568;2024-01-30T00:00:34;17.13;;;6.88;;
31347;SDS011;21711;49.708;18.568;2024-01-30T00:03:01;14.35;;;5.60;;
31347;SDS011;21711;49.708;18.568;2024-01-30T00:05:28;16.27;;;6.15;;
31347;SDS011;21711;49.708;18.568;2024-01-30T00:07:56;12.82;;;4.90;;
31347;SDS011;21711;49.708;18.568;2024-01-30T00:10:23;15.67;;;6.00;;
31347;SDS011;21711;49.708;18.568;2024-01-30T00:12:51;15.90;;;6.47;;
31347;SDS011;21711;49.708;18.568;2024-01-30T00:15:19;13.23;;;5.28;;
31347;SDS011;21711;49.708;18.568;2024-01-30T00:17:46;13.63;;;5.32;;
31347;SDS011;21711;49.708;18.568;2024-01-30T00:20:13;12.25;;;5.22;;
31347;SDS011;21711;49.708;18.568;2024-01-30T00:22:41;18.13;;;5.47;;
31347;SDS011;21711;49.708;18.568;2024-01-30T00:25:08;12.50;;;5.00;;
31347;SDS011;21711;49.708;18.568;2024-01-30T00:27:36;13.23;;;5.57;;
31347;SDS011;21711;49.708;18.568;2024-01-30T00:30:04;11.97;;;5.30;;
31347;SDS011;21711;49.708;18.568;2024-01-30T00:32:32;15.70;;;5.97;;
31347;SDS011;21711;49.708;18.568;2024-01-30T00:34:59;11.30;;;5.38;;
31347;SDS011;21711;49.708;18.568;2024-01-30T00:37:26;11.03;;;5.37;;
31347;SDS011;21711;49.708;18.568;2024-01-30T00:39:54;9.63;;;4.90;;
31347;SDS011;21711;49.708;18.568;2024-01-30T00:42:21;12.75;;;4.65;;
31347;SDS011;21711;49.708;18.568;2024-01-30T00:44:50;12.45;;;4.90;;
31347;SDS011;21711;49.708;18.568;2024-01-30T00:47:17;15.35;;;4.97;;
31347;SDS011;21711;49.708;18.568;2024-01-30T00:49:44;13.47;;;4.90;;
31347;SDS011;21711;49.708;18.568;2024-01-30T00:52:12;9.13;;;4.60;;
31347;SDS011;21711;49.708;18.568;2024-01-30T00:54:39;11.47;;;5.23;;
31347;SDS011;21711;49.708;18.568;2024-01-30T00:57:07;12.67;;;5.23;;
31347;SDS011;21711;49.708;18.568;2024-01-30T00:59:34;10.77;;;4.53;;
31347;SDS011;21711;49.708;18.568;2024-01-30T01:02:02;12.07;;;4.93;;
31347;SDS011;21711;49.708;18.568;2024-01-30T01:04:30;13.57;;;4.13;;
31347;SDS011;21711;49.708;18.568;2024-01-30T01:06:58;15.20;;;5.50;;
31347;SDS011;21711;49.708;18.568;2024-01-30T01:09:25;12.17;;;4.60;;
31347;SDS011;21711;49.708;18.568;2024-01-30T01:11:53;10.13;;;4.50;;
31347;SDS011;21711;49.708;18.568;2024-01-30T01:14:20;14.33;;;4.60;;
31347;SDS011;21711;49.708;18.568;2024-01-30T01:16:48;13.60;;;4.83;;
31347;SDS011;21711;49.708;18.568;2024-01-30T01:19:15;12.73;;;4.33;;
31347;SDS011;21711;49.708;18.568;2024-01-30T01:21:42;9.50;;;4.47;;
31347;SDS011;21711;49.708;18.568;2024-01-30T01:24:10;14.83;;;4.23;;
31347;SDS011;21711;49.708;18.568;2024-01-30T01:26:37;13.50;;;4.90;;
31347;SDS011;21711;49.708;18.568;2024-01-30T01:29:06;9.73;;;4.70;;
31347;SDS011;21711;49.708;18.568;2024-01-30T01:31:38;8.57;;;4.20;;
31347;SDS011;21711;49.708;18.568;2024-01-30T01:34:10;10.15;;;4.70;;
31347;SDS011;21711;49.708;18.568;2024-01-30T01:36:39;10.68;;;4.63;;
31347;SDS011;21711;49.708;18.568;2024-01-30T01:39:06;14.07;;;4.97;;
31347;SDS011;21711;49.708;18.568;2024-01-30T01:41:35;12.03;;;4.30;;
31347;SDS011;21711;49.708;18.568;2024-01-30T01:44:03;8.73;;;3.65;;
31347;SDS011;21711;49.708;18.568;2024-01-30T01:46:31;10.97;;;4.23;;
31347;SDS011;21711;49.708;18.568;2024-01-30T01:49:00;17.60;;;4.75;;
31347;SDS011;21711;49.708;18.568;2024-01-30T01:54:01;8.57;;;3.87;;
31347;SDS011;21711;49.708;18.568;2024-01-30T01:56:32;11.23;;;3.77;;
31347;SDS011;21711;49.708;18.568;2024-01-30T01:59:05;9.07;;;4.07;;
31347;SDS011;21711;49.708;18.568;2024-01-30T02:01:38;11.40;;;4.88;;
31347;SDS011;21711;49.708;18.568;2024-01-30T02:04:08;13.02;;;4.22;;
31347;SDS011;21711;49.708;18.568;2024-01-30T02:06:35;9.27;;;4.17;;
31347;SDS011;21711;49.708;18.568;2024-01-30T02:09:04;9.07;;;4.50;;
31347;SDS011;21711;49.708;18.568;2024-01-30T02:11:31;8.77;;;4.10;;
31347;SDS011;21711;49.708;18.568;2024-01-30T02:14:02;14.13;;;4.30;;
31347;SDS011;21711;49.708;18.568;2024-01-30T02:16:31;16.20;;;4.67;;
31347;SDS011;21711;49.708;18.568;2024-01-30T02:18:59;9.05;;;3.80;;
31347;SDS011;21711;49.708;18.568;2024-01-30T02:21:26;14.30;;;4.38;;
31347;SDS011;21711;49.708;18.568;2024-01-30T02:23:54;9.68;;;4.53;;
31347;SDS011;21711;49.708;18.568;2024-01-30T02:26:23;8.40;;;3.95;;
31347;SDS011;21711;49.708;18.568;2024-01-30T02:28:50;8.67;;;3.93;;
31347;SDS011;21711;49.708;18.568;2024-01-30T02:31:20;15.15;;;4.40;;
31347;SDS011;21711;49.708;18.568;2024-01-30T02:33:48;12.13;;;4.50;;
31347;SDS011;21711;49.708;18.568;2024-01-30T02:36:15;9.15;;;4.20;;
31347;SDS011;21711;49.708;18.568;2024-01-30T02:38:42;11.20;;;4.50;;
31347;SDS011;21711;49.708;18.568;2024-01-30T02:41:10;9.43;;;4.77;;
31347;SDS011;21711;49.708;18.568;2024-01-30T02:43:37;12.70;;;4.57;;
31347;SDS011;21711;49.708;18.568;2024-01-30T02:46:04;11.93;;;4.00;;
31347;SDS011;21711;49.708;18.568;2024-01-30T02:48:32;8.77;;;4.40;;
31347;SDS011;21711;49.708;18.568;2024-01-30T02:50:59;11.18;;;4.07;;
31347;SDS011;21711;49.708;18.568;2024-01-30T02:53:27;9.87;;;3.87;;
31347;SDS011;21711;49.708;18.568;2024-01-30T02:55:54;8.15;;;3.97;;
31347;SDS011;21711;49.708;18.568;2024-01-30T02:58:21;8.97;;;4.13;;
31347;SDS011;21711;49.708;18.568;2024-01-30T03:03:38;10.00;;;3.90;;
31347;SDS011;21711;49.708;18.568;2024-01-30T03:06:07;12.47;;;4.93;;
31347;SDS011;21711;49.708;18.568;2024-01-30T03:08:35;13.63;;;5.22;;
31347;SDS011;21711;49.708;18.568;2024-01-30T03:11:02;11.67;;;5.03;;
31347;SDS011;21711;49.708;18.568;2024-01-30T03:13:30;10.03;;;4.63;;
31347;SDS011;21711;49.708;18.568;2024-01-30T03:15:57;9.33;;;4.40;;
31347;SDS011;21711;49.708;18.568;2024-01-30T03:18:24;9.07;;;5.03;;
31347;SDS011;21711;49.708;18.568;2024-01-30T03:20:52;10.23;;;4.47;;
31347;SDS011;21711;49.708;18.568;2024-01-30T03:23:19;11.43;;;4.43;;
31347;SDS011;21711;49.708;18.568;2024-01-30T03:25:46;11.60;;;3.67;;
31347;SDS011;21711;49.708;18.568;2024-01-30T03:28:14;8.33;;;4.53;;
31347;SDS011;21711;49.708;18.568;2024-01-30T03:30:41;12.37;;;4.53;;
31347;SDS011;21711;49.708;18.568;2024-01-30T03:33:09;11.70;;;4.37;;
31347;SDS011;21711;49.708;18.568;2024-01-30T03:35:36;10.20;;;4.10;;
31347;SDS011;21711;49.708;18.568;2024-01-30T03:38:04;11.60;;;3.90;;
31347;SDS011;21711;49.708;18.568;2024-01-30T03:40:31;10.30;;;4.30;;
31347;SDS011;21711;49.708;18.568;2024-01-30T03:42:58;11.03;;;4.03;;
31347;SDS011;21711;49.708;18.568;2024-01-30T03:45:26;10.97;;;4.40;;
31347;SDS011;21711;49.708;18.568;2024-01-30T03:47:53;11.03;;;4.07;;
31347;SDS011;21711;49.708;18.568;2024-01-30T03:50:20;10.90;;;4.40;;
31347;SDS011;21711;49.708;18.568;2024-01-30T03:52:48;8.73;;;4.10;;
31347;SDS011;21711;49.708;18.568;2024-01-30T03:55:16;10.00;;;4.40;;
31347;SDS011;21711;49.708;18.568;2024-01-30T03:57:43;10.87;;;4.13;;
31347;SDS011;21711;49.708;18.568;2024-01-30T04:00:11;12.93;;;3.97;;
31347;SDS011;21711;49.708;18.568;2024-01-30T04:02:39;11.70;;;4.60;;
31347;SDS011;21711;49.708;18.568;2024-01-30T04:05:06;7.67;;;3.63;;
31347;SDS011;21711;49.708;18.568;2024-01-30T04:07:34;13.57;;;4.53;;
31347;SDS011;21711;49.708;18.568;2024-01-30T04:10:01;10.80;;;4.43;;
31347;SDS011;21711;49.708;18.568;2024-01-30T04:14:59;8.53;;;3.90;;
31347;SDS011;21711;49.708;18.568;2024-01-30T04:17:26;11.30;;;4.57;;
31347;SDS011;21711;49.708;18.568;2024-01-30T04:19:55;13.10;;;4.53;;
31347;SDS011;21711;49.708;18.568;2024-01-30T04:22:22;13.47;;;4.73;;
31347;SDS011;21711;49.708;18.568;2024-01-30T04:24:50;11.47;;;4.47;;
31347;SDS011;21711;49.708;18.568;2024-01-30T04:27:17;11.93;;;4.23;;
31347;SDS011;21711;49.708;18.568;2024-01-30T04:29:44;11.90;;;4.70;;
31347;SDS011;21711;49.708;18.568;2024-01-30T04:32:12;10.83;;;4.83;;
31347;SDS011;21711;49.708;18.568;2024-01-30T04:34:39;9.47;;;4.37;;
31347;SDS011;21711;49.708;18.568;2024-01-30T04:37:07;8.67;;;3.80;;
31347;SDS011;21711;49.708;18.568;2024-01-30T04:39:34;10.07;;;4.97;;
31347;SDS011;21711;49.708;18.568;2024-01-30T04:42:01;13.70;;;5.10;;
31347;SDS011;21711;49.708;18.568;2024-01-30T04:44:33;12.97;;;4.80;;
31347;SDS011;21711;49.708;18.568;2024-01-30T04:47:01;11.87;;;4.90;;
31347;SDS011;21711;49.708;18.568;2024-01-30T04:49:29;11.23;;;3.70;;
31347;SDS011;21711;49.708;18.568;2024-01-30T04:51:56;10.17;;;4.30;;
31347;SDS011;21711;49.708;18.568;2024-01-30T04:54:24;12.23;;;4.53;;
31347;SDS011;21711;49.708;18.568;2024-01-30T04:56:52;12.03;;;4.80;;
31347;SDS011;21711;49.708;18.568;2024-01-30T04:59:19;9.37;;;4.27;;
31347;SDS011;21711;49.708;18.568;2024-01-30T05:01:47;13.43;;;4.47;;
31347;SDS011;21711;49.708;18.568;2024-01-30T05:04:14;11.20;;;4.30;;
31347;SDS011;21711;49.708;18.568;2024-01-30T05:06:43;10.40;;;4.00;;
31347;SDS011;21711;49.708;18.568;2024-01-30T05:09:10;11.10;;;4.07;;
31347;SDS011;21711;49.708;18.568;2024-01-30T05:11:39;9.60;;;4.07;;
31347;SDS011;21711;49.708;18.568;2024-01-30T05:14:07;9.17;;;4.00;;
31347;SDS011;21711;49.708;18.568;2024-01-30T05:16:38;14.53;;;4.50;;
31347;SDS011;21711;49.708;18.568;2024-01-30T05:19:05;9.90;;;4.43;;
31347;SDS011;21711;49.708;18.568;2024-01-30T05:21:33;9.20;;;4.40;;
31347;SDS011;21711;49.708;18.568;2024-01-30T05:24:00;10.33;;;4.60;;
31347;SDS011;21711;49.708;18.568;2024-01-30T05:26:28;11.33;;;4.77;;
31347;SDS011;21711;49.708;18.568;2024-01-30T05:28:55;11.80;;;4.37;;
31347;SDS011;21711;49.708;18.568;2024-01-30T05:31:23;9.50;;;4.23;;
31347;SDS011;21711;49.708;18.568;2024-01-30T05:33:52;12.13;;;5.07;;
31347;SDS011;21711;49.708;18.568;2024-01-30T05:36:21;13.67;;;4.80;;
31347;SDS011;21711;49.708;18.568;2024-01-30T05:38:48;18.90;;;5.50;;
31347;SDS011;21711;49.708;18.568;2024-01-30T05:41:16;11.63;;;4.30;;
31347;SDS011;21711;49.708;18.568;2024-01-30T05:43:43;11.00;;;4.60;;
31347;SDS011;21711;49.708;18.568;2024-01-30T05:46:11;11.67;;;4.77;;
31347;SDS011;21711;49.708;18.568;2024-01-30T05:48:38;10.93;;;4.13;;
31347;SDS011;21711;49.708;18.568;2024-01-30T05:51:07;11.20;;;5.33;;
31347;SDS011;21711;49.708;18.568;2024-01-30T05:53:35;14.47;;;4.43;;
31347;SDS011;21711;49.708;18.568;2024-01-30T05:56:02;11.87;;;4.73;;
31347;SDS011;21711;49.708;18.568;2024-01-30T05:58:30;8.53;;;4.50;;
31347;SDS011;21711;49.708;18.568;2024-01-30T06:01:00;12.88;;;4.72;;
31347;SDS011;21711;49.708;18.568;2024-01-30T06:03:28;12.67;;;4.70;;
31347;SDS011;21711;49.708;18.568;2024-01-30T06:05:55;9.73;;;4.53;;
31347;SDS011;21711;49.708;18.568;2024-01-30T06:08:23;9.30;;;4.63;;
31347;SDS011;21711;49.708;18.568;2024-01-30T06:10:50;13.40;;;4.67;;
31347;SDS011;21711;49.708;18.568;2024-01-30T06:13:18;10.67;;;4.73;;
31347;SDS011;21711;49.708;18.568;2024-01-30T06:15:47;11.60;;;4.40;;
31347;SDS011;21711;49.708;18.568;2024-01-30T06:18:14;12.70;;;5.33;;
31347;SDS011;21711;49.708;18.568;2024-01-30T06:20:42;13.77;;;6.17;;
31347;SDS011;21711;49.708;18.568;2024-01-30T06:23:09;13.00;;;5.23;;
31347;SDS011;21711;49.708;18.568;2024-01-30T06:25:36;14.33;;;4.93;;
31347;SDS011;21711;49.708;18.568;2024-01-30T06:28:04;13.97;;;5.00;;
31347;SDS011;21711;49.708;18.568;2024-01-30T06:30:32;9.47;;;4.43;;
31347;SDS011;21711;49.708;18.568;2024-01-30T06:32:59;12.23;;;4.63;;
31347;SDS011;21711;49.708;18.568;2024-01-30T06:35:27;15.57;;;4.60;;
31347;SDS011;21711;49.708;18.568;2024-01-30T06:37:55;16.87;;;5.73;;
31347;SDS011;21711;49.708;18.568;2024-01-30T06:40:22;14.87;;;5.20;;
31347;SDS011;21711;49.708;18.568;2024-01-30T06:42:50;10.30;;;4.87;;
31347;SDS011;21711;49.708;18.568;2024-01-30T06:45:17;11.50;;;4.67;;
31347;SDS011;21711;49.708;18.568;2024-01-30T06:47:44;11.63;;;5.33;;
31347;SDS011;21711;49.708;18.568;2024-01-30T06:50:12;9.93;;;4.53;;
31347;SDS011;21711;49.708;18.568;2024-01-30T06:52:39;13.10;;;4.77;;
31347;SDS011;21711;49.708;18.568;2024-01-30T06:55:07;20.00;;;5.10;;
31347;SDS011;21711;49.708;18.568;2024-01-30T06:57:35;14.13;;;4.93;;
31347;SDS011;21711;49.708;18.568;2024-01-30T07:00:02;10.87;;;4.53;;
31347;SDS011;21711;49.708;18.568;2024-01-30T07:02:30;11.57;;;4.90;;
31347;SDS011;21711;49.708;18.568;2024-01-30T07:04:58;15.33;;;4.87;;
31347;SDS011;21711;49.708;18.568;2024-01-30T07:07:25;11.13;;;4.70;;
31347;SDS011;21711;49.708;18.568;2024-01-30T07:09:53;12.00;;;5.57;;
31347;SDS011;21711;49.708;18.568;2024-01-30T07:12:23;17.38;;;5.05;;
31347;SDS011;21711;49.708;18.568;2024-01-30T07:14:52;13.93;;;5.00;;
31347;SDS011;21711;49.708;18.568;2024-01-30T07:17:19;11.67;;;5.40;;
31347;SDS011;21711;49.708;18.568;2024-01-30T07:19:47;14.23;;;4.83;;
31347;SDS011;21711;49.708;18.568;2024-01-30T07:22:14;14.67;;;4.87;;
31347;SDS011;21711;49.708;18.568;2024-01-30T07:24:42;12.43;;;4.87;;
31347;SDS011;21711;49.708;18.568;2024-01-30T07:27:14;12.53;;;5.07;;
31347;SDS011;21711;49.708;18.568;2024-01-30T07:29:44;14.57;;;5.60;;
31347;SDS011;21711;49.708;18.568;2024-01-30T07:32:11;16.77;;;6.27;;
31347;SDS011;21711;49.708;18.568;2024-01-30T07:34:39;18.37;;;6.63;;
31347;SDS011;21711;49.708;18.568;2024-01-30T07:37:24;24.83;;;8.43;;
31347;SDS011;21711;49.708;18.568;2024-01-30T07:39:51;17.20;;;7.93;;
31347;SDS011;21711;49.708;18.568;2024-01-30T07:42:19;19.23;;;7.30;;
31347;SDS011;21711;49.708;18.568;2024-01-30T07:44:46;17.77;;;7.00;;
31347;SDS011;21711;49.708;18.568;2024-01-30T07:47:13;16.45;;;7.35;;
31347;SDS011;21711;49.708;18.568;2024-01-30T07:49:41;28.88;;;7.53;;
31347;SDS011;21711;49.708;18.568;2024-01-30T07:52:08;19.55;;;8.73;;
31347;SDS011;21711;49.708;18.568;2024-01-30T07:54:42;18.70;;;7.85;;
31347;SDS011;21711;49.708;18.568;2024-01-30T07:58:26;17.05;;;7.95;;
31347;SDS011;21711;49.708;18.568;2024-01-30T08:00:56;15.63;;;6.93;;
31347;SDS011;21711;49.708;18.568;2024-01-30T08:03:25;21.70;;;7.90;;
31347;SDS011;21711;49.708;18.568;2024-01-30T08:05:52;14.63;;;7.18;;
31347;SDS011;21711;49.708;18.568;2024-01-30T08:08:20;17.48;;;7.07;;
31347;SDS011;21711;49.708;18.568;2024-01-30T08:10:47;16.67;;;7.25;;
31347;SDS011;21711;49.708;18.568;2024-01-30T08:13:15;14.43;;;7.82;;
31347;SDS011;21711;49.708;18.568;2024-01-30T08:15:42;17.38;;;8.15;;
31347;SDS011;21711;49.708;18.568;2024-01-30T08:18:10;15.38;;;8.32;;
31347;SDS011;21711;49.708;18.568;2024-01-30T08:20:37;23.38;;;8.95;;
31347;SDS011;21711;49.708;18.568;2024-01-30T08:23:04;18.50;;;9.13;;
31347;SDS011;21711;49.708;18.568;2024-01-30T08:25:32;15.50;;;8.95;;
31347;SDS011;21711;49.708;18.568;2024-01-30T08:27:59;16.38;;;8.82;;
31347;SDS011;21711;49.708;18.568;2024-01-30T08:30:27;13.02;;;8.68;;
31347;SDS011;21711;49.708;18.568;2024-01-30T08:32:54;15.68;;;8.85;;
31347;SDS011;21711;49.708;18.568;2024-01-30T08:35:22;14.20;;;9.35;;
31347;SDS011;21711;49.708;18.568;2024-01-30T08:37:50;15.38;;;9.90;;
31347;SDS011;21711;49.708;18.568;2024-01-30T08:40:17;14.00;;;9.68;;
31347;SDS011;21711;49.708;18.568;2024-01-30T08:42:44;17.90;;;9.15;;
31347;SDS011;21711;49.708;18.568;2024-01-30T08:45:12;15.57;;;9.63;;
31347;SDS011;21711;49.708;18.568;2024-01-30T08:47:40;14.30;;;10.02;;
31347;SDS011;21711;49.708;18.568;2024-01-30T08:50:08;17.67;;;10.30;;
31347;SDS011;21711;49.708;18.568;2024-01-30T08:52:36;15.48;;;9.48;;
31347;SDS011;21711;49.708;18.568;2024-01-30T08:55:03;14.93;;;10.27;;
31347;SDS011;21711;49.708;18.568;2024-01-30T08:57:31;15.15;;;9.02;;
31347;SDS011;21711;49.708;18.568;2024-01-30T08:59:58;15.13;;;10.07;;
31347;SDS011;21711;49.708;18.568;2024-01-30T09:02:26;16.30;;;10.80;;
31347;SDS011;21711;49.708;18.568;2024-01-30T09:04:54;16.58;;;11.10;;
31347;SDS011;21711;49.708;18.568;2024-01-30T09:07:21;18.30;;;10.65;;
31347;SDS011;21711;49.708;18.568;2024-01-30T09:09:49;17.38;;;11.05;;
31347;SDS011;21711;49.708;18.568;2024-01-30T09:12:16;21.08;;;12.35;;
31347;SDS011;21711;49.708;18.568;2024-01-30T09:14:44;17.65;;;11.85;;
31347;SDS011;21711;49.708;18.568;2024-01-30T09:17:11;17.63;;;12.77;;
31347;SDS011;21711;49.708;18.568;2024-01-30T09:19:40;17.23;;;12.32;;
31347;SDS011;21711;49.708;18.568;2024-01-30T09:22:07;18.83;;;11.93;;
31347;SDS011;21711;49.708;18.568;2024-01-30T09:24:35;17.77;;;11.50;;
31347;SDS011;21711;49.708;18.568;2024-01-30T09:27:02;18.90;;;13.02;;
31347;SDS011;21711;49.708;18.568;2024-01-30T09:29:30;15.68;;;11.98;;
31347;SDS011;21711;49.708;18.568;2024-01-30T09:31:57;16.52;;;11.80;;
31347;SDS011;21711;49.708;18.568;2024-01-30T09:34:25;17.63;;;12.32;;
31347;SDS011;21711;49.708;18.568;2024-01-30T09:36:52;19.02;;;12.63;;
31347;SDS011;21711;49.708;18.568;2024-01-30T09:39:20;17.80;;;12.18;;
31347;SDS011;21711;49.708;18.568;2024-01-30T09:42:05;19.80;;;12.10;;
31347;SDS011;21711;49.708;18.568;2024-01-30T09:45:02;17.15;;;11.82;;
31347;SDS011;21711;49.708;18.568;2024-01-30T09:47:49;17.00;;;11.47;;
31347;SDS011;21711;49.708;18.568;2024-01-30T09:50:17;16.50;;;10.98;;
31347;SDS011;21711;49.708;18.568;2024-01-30T09:52:46;17.73;;;11.07;;
31347;SDS011;21711;49.708;18.568;2024-01-30T09:55:14;15.88;;;11.13;;
31347;SDS011;21711;49.708;18.568;2024-01-30T09:57:42;16.75;;;10.40;;
31347;SDS011;21711;49.708;18.568;2024-01-30T10:00:10;20.23;;;10.52;;
31347;SDS011;21711;49.708;18.568;2024-01-30T10:02:38;16.38;;;11.38;;
31347;SDS011;21711;49.708;18.568;2024-01-30T10:05:07;18.02;;;10.45;;
31347;SDS011;21711;49.708;18.568;2024-01-30T10:07:35;17.25;;;10.32;;
31347;SDS011;21711;49.708;18.568;2024-01-30T10:10:05;19.48;;;9.55;;
31347;SDS011;21711;49.708;18.568;2024-01-30T10:12:33;14.30;;;9.43;;
31347;SDS011;21711;49.708;18.568;2024-01-30T10:15:00;16.73;;;10.45;;
31347;SDS011;21711;49.708;18.568;2024-01-30T10:17:28;17.20;;;9.70;;
31347;SDS011;21711;49.708;18.568;2024-01-30T10:19:59;14.35;;;9.25;;
31347;SDS011;21711;49.708;18.568;2024-01-30T10:22:30;16.33;;;10.10;;
31347;SDS011;21711;49.708;18.568;2024-01-30T10:24:58;15.65;;;9.45;;
31347;SDS011;21711;49.708;18.568;2024-01-30T10:27:31;15.32;;;9.75;;
31347;SDS011;21711;49.708;18.568;2024-01-30T10:29:59;13.48;;;8.60;;
31347;SDS011;21711;49.708;18.568;2024-01-30T10:32:26;15.50;;;10.10;;
31347;SDS011;21711;49.708;18.568;2024-01-30T10:34:54;12.68;;;8.48;;
31347;SDS011;21711;49.708;18.568;2024-01-30T10:37:21;16.58;;;9.05;;
31347;SDS011;21711;49.708;18.568;2024-01-30T10:39:53;17.65;;;9.20;;
31347;SDS011;21711;49.708;18.568;2024-01-30T10:42:24;19.58;;;9.13;;
31347;SDS011;21711;49.708;18.568;2024-01-30T10:45:00;17.52;;;8.73;;
31347;SDS011;21711;49.708;18.568;2024-01-30T10:47:35;16.30;;;8.90;;
31347;SDS011;21711;49.708;18.568;2024-01-30T10:50:04;11.95;;;8.52;;
31347;SDS011;21711;49.708;18.568;2024-01-30T10:52:34;14.02;;;8.07;;
31347;SDS011;21711;49.708;18.568;2024-01-30T10:55:03;13.35;;;8.25;;
31347;SDS011;21711;49.708;18.568;2024-01-30T10:57:33;11.75;;;7.95;;
31347;SDS011;21711;49.708;18.568;2024-01-30T11:00:10;11.82;;;8.00;;
31347;SDS011;21711;49.708;18.568;2024-01-30T11:02:43;13.07;;;7.73;;
31347;SDS011;21711;49.708;18.568;2024-01-30T11:05:12;14.35;;;8.35;;
31347;SDS011;21711;49.708;18.568;2024-01-30T11:07:42;12.70;;;8.30;;
31347;SDS011;21711;49.708;18.568;2024-01-30T11:10:11;14.40;;;8.43;;
31347;SDS011;21711;49.708;18.568;2024-01-30T11:12:42;11.25;;;8.13;;
31347;SDS011;21711;49.708;18.568;2024-01-30T11:15:18;16.98;;;9.18;;
31347;SDS011;21711;49.708;18.568;2024-01-30T11:20:20;14.70;;;7.75;;
31347;SDS011;21711;49.708;18.568;2024-01-30T11:22:58;12.00;;;8.45;;
31347;SDS011;21711;49.708;18.568;2024-01-30T11:25:26;10.98;;;7.88;;
31347;SDS011;21711;49.708;18.568;2024-01-30T11:27:54;12.20;;;8.27;;
31347;SDS011;21711;49.708;18.568;2024-01-30T11:30:26;15.50;;;8.48;;
31347;SDS011;21711;49.708;18.568;2024-01-30T11:33:04;11.05;;;7.88;;
31347;SDS011;21711;49.708;18.568;2024-01-30T11:35:34;14.77;;;8.48;;
31347;SDS011;21711;49.708;18.568;2024-01-30T11:38:04;10.15;;;8.10;;
31347;SDS011;21711;49.708;18.568;2024-01-30T11:40:33;13.40;;;8.90;;
31347;SDS011;21711;49.708;18.568;2024-01-30T11:43:03;13.20;;;9.15;;
31347;SDS011;21711;49.708;18.568;2024-01-30T11:45:33;12.98;;;9.05;;
31347;SDS011;21711;49.708;18.568;2024-01-30T11:48:03;10.75;;;7.75;;
31347;SDS011;21711;49.708;18.568;2024-01-30T11:50:34;13.63;;;9.25;;
31347;SDS011;21711;49.708;18.568;2024-01-30T11:53:05;12.50;;;9.38;;
31347;SDS011;21711;49.708;18.568;2024-01-30T11:55:33;11.50;;;9.13;;
31347;SDS011;21711;49.708;18.568;2024-01-30T11:58:03;12.77;;;8.60;;
31347;SDS011;21711;49.708;18.568;2024-01-30T12:00:31;12.23;;;8.68;;
31347;SDS011;21711;49.708;18.568;2024-01-30T12:03:01;11.70;;;8.00;;
31347;SDS011;21711;49.708;18.568;2024-01-30T12:05:30;11.33;;;8.53;;
31347;SDS011;21711;49.708;18.568;2024-01-30T12:07:58;11.73;;;7.93;;
31347;SDS011;21711;49.708;18.568;2024-01-30T12:10:27;9.93;;;7.50;;
31347;SDS011;21711;49.708;18.568;2024-01-30T12:12:55;11.98;;;8.23;;
31347;SDS011;21711;49.708;18.568;2024-01-30T12:15:23;11.45;;;7.95;;
31347;SDS011;21711;49.708;18.568;2024-01-30T12:17:51;12.45;;;8.68;;
31347;SDS011;21711;49.708;18.568;2024-01-30T12:20:18;10.63;;;7.63;;
31347;SDS011;21711;49.708;18.568;2024-01-30T12:22:49;11.07;;;7.85;;
31347;SDS011;21711;49.708;18.568;2024-01-30T12:25:18;9.98;;;7.32;;
31347;SDS011;21711;49.708;18.568;2024-01-30T12:30:19;10.98;;;6.93;;
31347;SDS011;21711;49.708;18.568;2024-01-30T12:32:52;10.98;;;8.27;;
31347;SDS011;21711;49.708;18.568;2024-01-30T12:35:20;10.95;;;7.38;;
31347;SDS011;21711;49.708;18.568;2024-01-30T12:37:48;15.20;;;6.72;;
31347;SDS011;21711;49.708;18.568;2024-01-30T12:40:17;9.93;;;6.60;;
31347;SDS011;21711;49.708;18.568;2024-01-30T12:42:48;11.07;;;7.07;;
31347;SDS011;21711;49.708;18.568;2024-01-30T12:45:16;11.10;;;6.95;;
31347;SDS011;21711;49.708;18.568;2024-01-30T12:47:49;10.70;;;6.97;;
31347;SDS011;21711;49.708;18.568;2024-01-30T12:50:17;10.48;;;7.22;;
31347;SDS011;21711;49.708;18.568;2024-01-30T12:52:45;10.63;;;6.72;;
31347;SDS011;21711;49.708;18.568;2024-01-30T12:55:16;14.40;;;6.75;;
31347;SDS011;21711;49.708;18.568;2024-01-30T12:57:44;11.23;;;6.45;;
31347;SDS011;21711;49.708;18.568;2024-01-30T13:00:12;11.23;;;6.82;;
31347;SDS011;21711;49.708;18.568;2024-01-30T13:02:40;10.95;;;7.03;;
31347;SDS011;21711;49.708;18.568;2024-01-30T13:05:09;14.35;;;7.55;;
31347;SDS011;21711;49.708;18.568;2024-01-30T13:07:37;12.63;;;7.57;;
31347;SDS011;21711;49.708;18.568;2024-01-30T13:10:05;13.02;;;8.18;;
31347;SDS011;21711;49.708;18.568;2024-01-30T13:12:32;11.85;;;7.88;;
31347;SDS011;21711;49.708;18.568;2024-01-30T13:15:00;12.77;;;8.80;;
31347;SDS011;21711;49.708;18.568;2024-01-30T13:17:28;12.00;;;7.78;;
31347;SDS011;21711;49.708;18.568;2024-01-30T13:19:55;13.52;;;8.23;;
31347;SDS011;21711;49.708;18.568;2024-01-30T13:22:35;12.55;;;6.85;;
31347;SDS011;21711;49.708;18.568;2024-01-30T13:25:05;13.65;;;7.40;;
31347;SDS011;21711;49.708;18.568;2024-01-30T13:27:34;9.55;;;5.93;;
31347;SDS011;21711;49.708;18.568;2024-01-30T13:30:04;10.80;;;5.97;;
31347;SDS011;21711;49.708;18.568;2024-01-30T13:32:33;11.60;;;5.65;;
31347;SDS011;21711;49.708;18.568;2024-01-30T13:35:00;14.23;;;5.55;;
31347;SDS011;21711;49.708;18.568;2024-01-30T13:37:28;9.40;;;4.15;;
31347;SDS011;21711;49.708;18.568;2024-01-30T13:39:56;7.70;;;4.55;;
31347;SDS011;21711;49.708;18.568;2024-01-30T13:42:23;7.70;;;3.92;;
31347;SDS011;21711;49.708;18.568;2024-01-30T13:44:51;8.48;;;3.88;;
31347;SDS011;21711;49.708;18.568;2024-01-30T13:47:18;8.98;;;4.20;;
31347;SDS011;21711;49.708;18.568;2024-01-30T13:49:48;7.75;;;4.20;;
31347;SDS011;21711;49.708;18.568;2024-01-30T13:52:15;8.52;;;3.63;;
31347;SDS011;21711;49.708;18.568;2024-01-30T13:54:43;6.78;;;3.97;;
31347;SDS011;21711;49.708;18.568;2024-01-30T13:57:11;9.70;;;3.53;;
31347;SDS011;21711;49.708;18.568;2024-01-30T13:59:38;10.07;;;3.65;;
31347;SDS011;21711;49.708;18.568;2024-01-30T14:02:06;8.05;;;3.00;;
31347;SDS011;21711;49.708;18.568;2024-01-30T14:04:35;4.88;;;2.45;;
31347;SDS011;21711;49.708;18.568;2024-01-30T14:07:04;4.75;;;1.98;;
31347;SDS011;21711;49.708;18.568;2024-01-30T14:09:33;4.47;;;1.95;;
31347;SDS011;21711;49.708;18.568;2024-01-30T14:12:01;5.18;;;2.55;;
31347;SDS011;21711;49.708;18.568;2024-01-30T14:14:29;4.47;;;2.20;;
31347;SDS011;21711;49.708;18.568;2024-01-30T14:16:56;5.35;;;2.55;;
31347;SDS011;21711;49.708;18.568;2024-01-30T14:19:24;3.85;;;1.80;;
31347;SDS011;21711;49.708;18.568;2024-01-30T14:21:52;6.38;;;2.40;;
31347;SDS011;21711;49.708;18.568;2024-01-30T14:24:19;5.22;;;2.13;;
31347;SDS011;21711;49.708;18.568;2024-01-30T14:26:47;5.07;;;2.45;;
31347;SDS011;21711;49.708;18.568;2024-01-30T14:29:14;4.43;;;2.08;;
31347;SDS011;21711;49.708;18.568;2024-01-30T14:31:42;5.57;;;2.15;;
31347;SDS011;21711;49.708;18.568;2024-01-30T14:34:10;6.68;;;2.58;;
31347;SDS011;21711;49.708;18.568;2024-01-30T14:36:37;6.13;;;2.35;;
31347;SDS011;21711;49.708;18.568;2024-01-30T14:39:05;5.20;;;2.00;;
31347;SDS011;21711;49.708;18.568;2024-01-30T14:41:33;6.85;;;2.92;;
31347;SDS011;21711;49.708;18.568;2024-01-30T14:44:01;6.38;;;2.10;;